createdAt,value
2019-01-23T00:00:57.966Z,2.00
2019-01-23T00:01:57.937Z,1.50
2019-01-23T00:02:57.897Z,2.20
2019-01-23T00:03:57.878Z,2.00
2019-01-23T00:04:57.848Z,2.00
2019-01-23T00:05:57.801Z,1.80
2019-01-23T00:06:57.795Z,2.20
2019-01-23T00:07:57.740Z,1.80
2019-01-23T00:08:57.728Z,2.00
2019-01-23T00:09:57.721Z,1.70
2019-01-23T00:10:57.655Z,1.70
2019-01-23T00:11:57.613Z,2.00
2019-01-23T00:12:57.568Z,2.10
2019-01-23T00:13:57.574Z,1.70
2019-01-23T00:14:57.522Z,2.40
2019-01-23T00:15:57.665Z,1.90
2019-01-23T00:16:57.498Z,2.50
2019-01-23T00:17:57.433Z,1.70
2019-01-23T00:18:57.760Z,2.10
2019-01-23T00:19:57.378Z,2.00
2019-01-23T00:20:57.347Z,1.80
2019-01-23T00:21:57.697Z,2.10
2019-01-23T00:22:57.281Z,2.20
2019-01-23T00:23:57.237Z,1.90
2019-01-23T00:24:57.215Z,2.10
2019-01-23T00:26:00.259Z,2.40
2019-01-23T00:26:57.230Z,2.00
2019-01-23T00:28:57.125Z,1.50
2019-01-23T00:29:57.095Z,2.40
2019-01-23T00:30:57.017Z,2.40
2019-01-23T00:31:57.046Z,1.80
2019-01-23T00:32:56.970Z,2.00
2019-01-23T00:33:57.046Z,1.60
2019-01-23T00:34:56.920Z,2.40
2019-01-23T00:35:56.872Z,2.60
2019-01-23T00:36:56.863Z,2.00
2019-01-23T00:37:56.823Z,1.70
2019-01-23T00:38:56.797Z,2.00
2019-01-23T00:39:56.756Z,1.70
2019-01-23T00:40:56.723Z,2.50
2019-01-23T00:41:56.681Z,2.40
2019-01-23T00:42:56.655Z,1.90
2019-01-23T00:43:56.634Z,2.10
2019-01-23T00:44:56.597Z,2.10
2019-01-23T00:45:56.587Z,2.00
2019-01-23T00:46:56.549Z,1.90
2019-01-23T00:47:56.518Z,1.80
2019-01-23T00:48:56.638Z,2.40
2019-01-23T00:49:56.442Z,2.00
2019-01-23T00:50:56.718Z,2.00
2019-01-23T00:51:56.379Z,2.20
2019-01-23T00:52:56.360Z,2.10
2019-01-23T00:53:56.305Z,1.60
2019-01-23T00:54:56.458Z,2.40
2019-01-23T00:55:56.230Z,1.60
2019-01-23T00:56:56.453Z,1.60
2019-01-23T00:57:56.207Z,1.80
2019-01-23T00:58:56.154Z,1.90
2019-01-23T00:59:56.114Z,2.60
2019-01-23T01:00:56.110Z,2.00
2019-01-23T01:01:56.074Z,2.00
2019-01-23T01:02:56.054Z,2.30
2019-01-23T01:03:56.012Z,2.20
2019-01-23T01:04:55.976Z,2.00
2019-01-23T01:05:55.955Z,1.90
2019-01-23T01:06:55.906Z,2.10
2019-01-23T01:07:55.890Z,1.80
2019-01-23T01:08:55.826Z,1.90
2019-01-23T01:09:55.802Z,2.00
2019-01-23T01:10:55.778Z,1.70
2019-01-23T01:11:55.767Z,2.10
2019-01-23T01:12:55.716Z,2.30
2019-01-23T01:13:55.710Z,1.90
2019-01-23T01:14:55.656Z,2.50
2019-01-23T01:15:55.643Z,2.30
2019-01-23T01:16:55.611Z,1.60
2019-01-23T01:17:55.569Z,2.00
2019-01-23T01:18:55.674Z,2.20
2019-01-23T01:19:55.514Z,1.90
2019-01-23T01:20:55.473Z,1.90
2019-01-23T01:21:55.447Z,1.90
2019-01-23T01:22:55.556Z,2.10
2019-01-23T01:23:55.365Z,1.90
2019-01-23T01:24:55.351Z,1.80
2019-01-23T01:25:55.312Z,1.90
2019-01-23T01:26:55.287Z,2.40
2019-01-23T01:27:55.254Z,1.90
2019-01-23T01:28:56.030Z,1.80
2019-01-23T01:29:55.169Z,2.10
2019-01-23T01:30:55.312Z,1.70
2019-01-23T01:31:55.111Z,1.90
2019-01-23T01:32:55.103Z,2.90
2019-01-23T01:33:55.206Z,2.50
2019-01-23T01:34:55.059Z,2.10
2019-01-23T01:36:54.970Z,1.30
2019-01-23T01:37:54.963Z,2.60
2019-01-23T01:38:54.902Z,2.50
2019-01-23T01:39:54.888Z,2.80
2019-01-23T01:40:54.838Z,2.00
2019-01-23T01:41:54.815Z,2.20
2019-01-23T01:42:55.014Z,2.00
2019-01-23T01:43:54.750Z,2.20
2019-01-23T01:44:54.722Z,2.20
2019-01-23T01:45:54.673Z,1.90
2019-01-23T01:46:54.645Z,2.30
2019-01-23T01:47:54.623Z,2.20
2019-01-23T01:48:54.598Z,2.40
2019-01-23T01:49:54.552Z,2.10
2019-01-23T01:50:54.579Z,2.10
2019-01-23T01:51:54.659Z,1.70
2019-01-23T01:52:54.462Z,2.00
2019-01-23T01:53:54.434Z,1.90
2019-01-23T01:54:54.392Z,1.70
2019-01-23T01:55:54.384Z,2.20
2019-01-23T01:56:54.344Z,2.40
2019-01-23T01:57:54.586Z,2.10
2019-01-23T01:58:54.296Z,1.50
2019-01-23T01:59:54.262Z,2.00
2019-01-23T02:00:54.220Z,1.50
2019-01-23T02:01:54.199Z,1.80
2019-01-23T02:02:54.373Z,2.20
2019-01-23T02:03:54.481Z,2.20
2019-01-23T02:04:54.091Z,2.20
2019-01-23T02:05:54.095Z,2.50
2019-01-23T02:06:54.019Z,2.10
2019-01-23T02:07:54.007Z,2.00
2019-01-23T02:08:53.962Z,1.80
2019-01-23T02:09:53.964Z,2.20
2019-01-23T02:10:53.919Z,2.40
2019-01-23T02:11:53.878Z,2.10
2019-01-23T02:12:53.828Z,2.20
2019-01-23T02:13:53.785Z,2.30
2019-01-23T02:14:53.757Z,1.90
2019-01-23T02:15:53.768Z,2.30
2019-01-23T02:16:53.719Z,2.00
2019-01-23T02:17:53.684Z,2.10
2019-01-23T02:18:53.632Z,2.00
2019-01-23T02:19:53.828Z,2.10
2019-01-23T02:20:53.587Z,3.40
2019-01-23T02:21:53.555Z,2.60
2019-01-23T02:22:53.518Z,2.30
2019-01-23T02:23:53.501Z,2.40
2019-01-23T02:24:53.473Z,2.60
2019-01-23T02:25:53.608Z,2.70
2019-01-23T02:26:53.405Z,3.10
2019-01-23T02:27:53.374Z,2.30
2019-01-23T02:28:53.321Z,2.10
2019-01-23T02:29:53.322Z,1.60
2019-01-23T02:30:53.275Z,1.60
2019-01-23T02:31:53.401Z,3.30
2019-01-23T02:32:53.281Z,2.00
2019-01-23T02:33:53.180Z,2.10
2019-01-23T02:34:53.164Z,2.20
2019-01-23T02:35:53.118Z,2.10
2019-01-23T02:36:53.075Z,2.00
2019-01-23T02:37:53.031Z,2.30
2019-01-23T02:38:53.047Z,2.10
2019-01-23T02:39:52.981Z,2.00
2019-01-23T02:40:52.953Z,1.70
2019-01-23T02:41:52.920Z,2.60
2019-01-23T02:42:52.885Z,3.00
2019-01-23T02:43:52.855Z,2.80
2019-01-23T02:44:52.830Z,3.30
2019-01-23T02:45:52.793Z,3.40
2019-01-23T02:46:52.776Z,3.20
2019-01-23T02:47:52.734Z,3.10
2019-01-23T02:48:52.676Z,2.70
2019-01-23T02:49:52.663Z,2.50
2019-01-23T02:50:52.623Z,2.70
2019-01-23T02:51:52.859Z,2.30
2019-01-23T02:52:52.859Z,2.50
2019-01-23T02:53:52.536Z,3.30
2019-01-23T02:54:52.518Z,2.50
2019-01-23T02:55:52.475Z,2.50
2019-01-23T02:56:52.440Z,2.20
2019-01-23T02:57:52.428Z,1.80
2019-01-23T02:58:52.474Z,2.30
2019-01-23T02:59:52.351Z,2.30
2019-01-23T03:00:52.319Z,2.40
2019-01-23T03:01:52.311Z,2.40
2019-01-23T03:02:52.268Z,2.30
2019-01-23T03:03:52.201Z,2.50
2019-01-23T03:04:52.202Z,3.40
2019-01-23T03:05:52.179Z,2.10
2019-01-23T03:06:52.111Z,2.50
2019-01-23T03:07:52.086Z,2.40
2019-01-23T03:08:52.052Z,1.90
2019-01-23T03:09:52.036Z,2.40
2019-01-23T03:10:52.008Z,2.40
2019-01-23T03:11:51.985Z,2.30
2019-01-23T03:12:51.930Z,1.60
2019-01-23T03:13:51.911Z,2.10
2019-01-23T03:14:51.887Z,2.40
2019-01-23T03:15:51.832Z,1.80
2019-01-23T03:16:51.816Z,1.80
2019-01-23T03:17:51.762Z,2.20
2019-01-23T03:18:51.749Z,2.10
2019-01-23T03:19:51.692Z,2.20
2019-01-23T03:20:51.691Z,1.80
2019-01-23T03:21:51.655Z,2.10
2019-01-23T03:22:51.607Z,1.80
2019-01-23T03:23:51.648Z,1.90
2019-01-23T03:24:51.537Z,2.00
2019-01-23T03:25:51.518Z,2.30
2019-01-23T03:26:51.479Z,2.00
2019-01-23T03:27:51.457Z,2.00
2019-01-23T03:28:51.428Z,2.00
2019-01-23T03:29:51.529Z,1.70
2019-01-23T03:30:51.369Z,2.00
2019-01-23T03:31:51.358Z,2.40
2019-01-23T03:32:51.284Z,2.10
2019-01-23T03:33:51.329Z,1.50
2019-01-23T03:34:51.236Z,2.10
2019-01-23T03:35:51.350Z,2.10
2019-01-23T03:36:51.179Z,1.80
2019-01-23T03:37:51.143Z,1.90
2019-01-23T03:38:51.103Z,1.70
2019-01-23T03:39:51.078Z,1.90
2019-01-23T03:41:51.004Z,1.50
2019-01-23T03:42:50.991Z,2.20
2019-01-23T03:43:50.947Z,1.70
2019-01-23T03:44:50.931Z,1.90
2019-01-23T03:45:50.883Z,1.80
2019-01-23T03:46:50.891Z,1.80
2019-01-23T03:47:50.819Z,2.00
2019-01-23T03:48:50.784Z,2.00
2019-01-23T03:49:50.761Z,2.10
2019-01-23T03:50:50.719Z,2.00
2019-01-23T03:51:50.678Z,1.70
2019-01-23T03:52:50.659Z,1.90
2019-01-23T03:53:50.642Z,2.20
2019-01-23T03:54:50.571Z,2.10
2019-01-23T03:55:50.557Z,2.10
2019-01-23T03:56:50.690Z,1.70
2019-01-23T03:57:50.508Z,1.70
2019-01-23T03:58:50.443Z,2.30
2019-01-23T03:59:50.446Z,1.80
2019-01-23T04:00:50.397Z,2.00
2019-01-23T04:01:50.370Z,2.20
2019-01-23T04:02:50.503Z,1.90
2019-01-23T04:03:50.295Z,1.90
2019-01-23T04:04:50.281Z,1.90
2019-01-23T04:05:50.251Z,1.90
2019-01-23T04:06:50.219Z,2.70
2019-01-23T04:07:50.175Z,1.70
2019-01-23T04:08:50.160Z,2.00
2019-01-23T04:09:50.120Z,1.90
2019-01-23T04:10:50.084Z,1.90
2019-01-23T04:11:50.435Z,1.70
2019-01-23T04:12:50.012Z,1.90
2019-01-23T04:13:49.987Z,2.10
2019-01-23T04:14:49.957Z,1.70
2019-01-23T04:15:49.937Z,1.80
2019-01-23T04:16:49.875Z,1.80
2019-01-23T04:17:49.853Z,1.70
2019-01-23T04:18:49.826Z,1.70
2019-01-23T04:19:49.787Z,1.90
2019-01-23T04:20:49.773Z,2.60
2019-01-23T04:21:49.730Z,1.90
2019-01-23T04:22:49.686Z,1.70
2019-01-23T04:23:49.653Z,1.70
2019-01-23T04:24:49.632Z,1.60
2019-01-23T04:25:49.617Z,1.90
2019-01-23T04:26:49.577Z,1.80
2019-01-23T04:27:49.544Z,2.30
2019-01-23T04:28:49.658Z,2.00
2019-01-23T04:29:49.472Z,1.40
2019-01-23T04:30:49.427Z,1.60
2019-01-23T04:31:49.418Z,2.20
2019-01-23T04:32:49.406Z,1.40
2019-01-23T04:33:49.352Z,1.60
2019-01-23T04:34:49.479Z,2.10
2019-01-23T04:35:49.276Z,1.80
2019-01-23T04:36:49.227Z,2.20
2019-01-23T04:37:49.225Z,2.00
2019-01-23T04:38:49.193Z,1.80
2019-01-23T04:39:49.159Z,2.10
2019-01-23T04:40:49.114Z,1.60
2019-01-23T04:41:49.102Z,2.00
2019-01-23T04:42:49.071Z,1.50
2019-01-23T04:43:49.032Z,1.50
2019-01-23T04:44:49.004Z,1.80
2019-01-23T04:45:48.962Z,2.50
2019-01-23T04:46:48.921Z,2.10
2019-01-23T04:47:48.898Z,1.70
2019-01-23T04:48:48.848Z,1.80
2019-01-23T04:49:48.839Z,2.20
2019-01-23T04:50:48.797Z,1.80
2019-01-23T04:51:48.753Z,2.10
2019-01-23T04:52:48.723Z,1.70
2019-01-23T04:53:48.700Z,1.70
2019-01-23T04:54:48.667Z,1.80
2019-01-23T04:56:48.611Z,1.00
2019-01-23T04:57:48.580Z,2.20
2019-01-23T04:58:48.547Z,1.50
2019-01-23T04:59:48.490Z,1.80
2019-01-23T05:00:48.498Z,1.70
2019-01-23T05:01:48.444Z,1.80
2019-01-23T05:02:48.476Z,1.90
2019-01-23T05:03:48.419Z,1.80
2019-01-23T05:04:48.338Z,2.20
2019-01-23T05:05:48.327Z,1.90
2019-01-23T05:06:48.310Z,1.60
2019-01-23T05:07:48.248Z,3.00
2019-01-23T05:08:48.235Z,2.00
2019-01-23T05:09:48.194Z,2.00
2019-01-23T05:10:48.144Z,1.50
2019-01-23T05:11:48.141Z,1.70
2019-01-23T05:12:48.117Z,1.60
2019-01-23T05:13:48.065Z,1.70
2019-01-23T05:14:48.049Z,2.40
2019-01-23T05:15:48.025Z,2.20
2019-01-23T05:16:47.970Z,2.00
2019-01-23T05:17:47.938Z,1.60
2019-01-23T05:18:47.882Z,2.00
2019-01-23T05:19:47.875Z,2.40
2019-01-23T05:20:47.836Z,1.60
2019-01-23T05:21:47.816Z,1.60
2019-01-23T05:22:47.767Z,1.80
2019-01-23T05:23:47.733Z,2.20
2019-01-23T05:24:47.713Z,1.60
2019-01-23T05:25:47.679Z,1.70
2019-01-23T05:26:47.654Z,1.90
2019-01-23T05:27:47.595Z,2.40
2019-01-23T05:28:47.590Z,1.50
2019-01-23T05:29:54.596Z,1.90
2019-01-23T05:30:47.519Z,1.70
2019-01-23T05:31:47.513Z,2.10
2019-01-23T05:32:47.445Z,1.80
2019-01-23T05:33:47.435Z,2.00
2019-01-23T05:34:47.385Z,1.80
2019-01-23T05:35:47.347Z,1.70
2019-01-23T05:36:47.294Z,1.50
2019-01-23T05:37:47.364Z,1.80
2019-01-23T05:38:47.249Z,1.70
2019-01-23T05:39:47.212Z,1.50
2019-01-23T05:40:47.191Z,1.90
2019-01-23T05:41:47.326Z,1.70
2019-01-23T05:42:47.129Z,1.80
2019-01-23T05:43:47.088Z,1.70
2019-01-23T05:44:47.055Z,1.60
2019-01-23T05:45:47.017Z,1.90
2019-01-23T05:47:46.963Z,1.10
2019-01-23T05:48:46.937Z,1.90
2019-01-23T05:49:46.876Z,2.30
2019-01-23T05:50:46.847Z,1.40
2019-01-23T05:51:46.829Z,1.40
2019-01-23T05:52:46.780Z,1.90
2019-01-23T05:53:46.738Z,1.50
2019-01-23T05:54:46.756Z,1.70
2019-01-23T05:55:46.699Z,1.70
2019-01-23T05:56:46.668Z,1.70
2019-01-23T05:57:46.691Z,1.80
2019-01-23T05:58:46.595Z,1.90
2019-01-23T05:59:46.592Z,1.80
2019-01-23T06:00:46.556Z,1.70
2019-01-23T06:01:46.503Z,1.80
2019-01-23T06:02:46.799Z,1.50
2019-01-23T06:03:46.432Z,1.60
2019-01-23T06:04:46.403Z,1.80
2019-01-23T06:05:46.373Z,1.70
2019-01-23T06:06:46.332Z,1.40
2019-01-23T06:07:46.313Z,1.60
2019-01-23T06:08:46.412Z,1.90
2019-01-23T06:09:46.243Z,2.00
2019-01-23T06:10:46.217Z,1.50
2019-01-23T06:11:46.193Z,1.60
2019-01-23T06:12:46.165Z,1.90
2019-01-23T06:13:46.123Z,1.60
2019-01-23T06:14:46.077Z,1.40
2019-01-23T06:15:46.047Z,1.90
2019-01-23T06:16:46.001Z,2.30
2019-01-23T06:17:45.980Z,1.70
2019-01-23T06:18:45.960Z,2.20
2019-01-23T06:19:45.942Z,1.90
2019-01-23T06:20:45.872Z,1.90
2019-01-23T06:21:45.855Z,1.60
2019-01-23T06:22:45.814Z,2.00
2019-01-23T06:23:45.884Z,1.60
2019-01-23T06:24:45.743Z,1.60
2019-01-23T06:25:45.729Z,1.60
2019-01-23T06:26:45.677Z,2.00
2019-01-23T06:31:32.051Z,1.00
2019-01-23T06:32:31.900Z,2.20
2019-01-23T06:33:31.844Z,1.80
2019-01-23T06:34:31.799Z,1.90
2019-01-23T06:35:31.746Z,2.00
2019-01-23T06:36:31.718Z,2.40
2019-01-23T06:37:31.702Z,1.90
2019-01-23T06:38:31.668Z,1.80
2019-01-23T06:39:31.654Z,1.90
2019-01-23T06:40:31.626Z,2.00
2019-01-23T06:41:31.586Z,1.80
2019-01-23T06:42:31.695Z,2.20
2019-01-23T06:43:31.504Z,1.70
2019-01-23T06:44:31.489Z,1.80
2019-01-23T06:45:31.454Z,2.10
2019-01-23T06:46:31.423Z,1.40
2019-01-23T06:47:31.384Z,1.90
2019-01-23T06:48:31.488Z,1.50
2019-01-23T06:49:31.340Z,2.10
2019-01-23T06:50:31.288Z,1.80
2019-01-23T06:51:31.248Z,2.30
2019-01-23T06:52:31.217Z,1.80
2019-01-23T06:53:31.191Z,1.70
2019-01-23T06:54:31.170Z,1.90
2019-01-23T06:55:31.112Z,2.10
2019-01-23T06:56:31.081Z,2.00
2019-01-23T06:57:31.099Z,1.80
2019-01-23T06:58:31.013Z,1.50
2019-01-23T06:59:30.992Z,2.10
2019-01-23T07:00:30.947Z,1.90
2019-01-23T07:01:30.923Z,2.10
2019-01-23T07:02:30.892Z,1.80
2019-01-23T07:03:30.835Z,1.80
2019-01-23T07:04:30.812Z,1.70
2019-01-23T07:05:30.777Z,1.90
2019-01-23T07:06:30.764Z,1.80
2019-01-23T07:07:30.724Z,1.70
2019-01-23T07:08:30.686Z,1.80
2019-01-23T07:09:30.797Z,1.60
2019-01-23T07:10:30.623Z,1.70
2019-01-23T07:11:30.693Z,1.80
2019-01-23T07:12:30.562Z,2.10
2019-01-23T07:13:30.509Z,1.50
2019-01-23T07:14:30.510Z,1.80
2019-01-23T07:15:30.500Z,2.20
2019-01-23T07:16:30.408Z,2.10
2019-01-23T07:17:30.419Z,1.60
2019-01-23T07:18:30.364Z,1.70
2019-01-23T07:19:30.335Z,1.90
2019-01-23T07:20:30.287Z,1.80
2019-01-23T07:21:30.251Z,1.60
2019-01-23T07:22:30.231Z,1.80
2019-01-23T07:23:30.187Z,2.10
2019-01-23T07:24:30.176Z,1.60
2019-01-23T07:25:30.141Z,1.60
2019-01-23T07:26:30.121Z,1.60
2019-01-23T07:27:30.056Z,1.70
2019-01-23T07:28:30.029Z,1.60
2019-01-23T07:29:30.000Z,2.10
2019-01-23T07:30:30.005Z,1.70
2019-01-23T07:31:29.929Z,1.80
2019-01-23T07:32:29.887Z,1.80
2019-01-23T07:33:29.865Z,1.60
2019-01-23T07:34:29.837Z,1.60
2019-01-23T07:35:29.778Z,1.80
2019-01-23T07:36:29.754Z,1.90
2019-01-23T07:37:29.730Z,1.40
2019-01-23T07:38:29.700Z,2.00
2019-01-23T07:39:29.691Z,1.90
2019-01-23T07:40:29.644Z,1.90
2019-01-23T07:41:29.763Z,1.70
2019-01-23T07:42:29.578Z,1.90
2019-01-23T07:43:29.544Z,2.10
2019-01-23T07:44:29.539Z,1.80
2019-01-23T07:45:29.476Z,1.60
2019-01-23T07:46:29.446Z,1.50
2019-01-23T07:47:29.552Z,2.20
2019-01-23T07:48:29.350Z,1.90
2019-01-23T07:49:29.351Z,1.50
2019-01-23T07:50:29.364Z,1.60
2019-01-23T07:51:29.262Z,1.80
2019-01-23T07:52:29.252Z,1.90
2019-01-23T07:53:29.191Z,1.60
2019-01-23T07:54:29.199Z,1.60
2019-01-23T07:55:29.130Z,1.60
2019-01-23T07:56:29.117Z,2.10
2019-01-23T07:57:29.097Z,1.70
2019-01-23T07:58:29.037Z,1.60
2019-01-23T07:59:29.030Z,2.30
2019-01-23T08:00:31.529Z,2.00
2019-01-23T08:01:28.957Z,1.90
2019-01-23T08:02:28.924Z,2.10
2019-01-23T08:03:28.886Z,1.90
2019-01-23T08:04:28.839Z,2.00
2019-01-23T08:05:28.821Z,1.60
2019-01-23T08:06:28.768Z,2.00
2019-01-23T08:07:28.749Z,2.10
2019-01-23T08:08:28.713Z,1.90
2019-01-23T08:09:28.678Z,2.10
2019-01-23T08:10:28.678Z,1.60
2019-01-23T08:11:28.614Z,2.00
2019-01-23T08:12:28.564Z,2.10
2019-01-23T08:13:28.554Z,1.70
2019-01-23T08:14:28.511Z,1.70
2019-01-23T08:15:28.493Z,1.90
2019-01-23T08:16:28.447Z,1.90
2019-01-23T08:17:32.783Z,1.50
2019-01-23T08:18:28.387Z,2.10
2019-01-23T08:20:28.324Z,1.10
2019-01-23T08:21:28.307Z,2.00
2019-01-23T08:22:28.259Z,1.60
2019-01-23T08:23:28.203Z,1.80
2019-01-23T08:24:28.196Z,2.20
2019-01-23T08:25:28.156Z,1.90
2019-01-23T08:26:28.110Z,1.90
2019-01-23T08:27:28.112Z,2.10
2019-01-23T08:28:28.052Z,2.30
2019-01-23T08:29:28.011Z,1.90
2019-01-23T08:30:27.992Z,1.60
2019-01-23T08:31:27.943Z,2.10
2019-01-23T08:32:27.914Z,2.30
2019-01-23T08:33:27.884Z,1.80
2019-01-23T08:34:27.850Z,1.80
2019-01-23T08:35:27.823Z,2.00
2019-01-23T08:36:27.787Z,1.90
2019-01-23T08:37:27.733Z,1.70
2019-01-23T08:38:27.714Z,2.10
2019-01-23T08:39:28.082Z,1.90
2019-01-23T08:40:27.641Z,1.80
2019-01-23T08:41:27.633Z,1.50
2019-01-23T08:42:27.592Z,1.90
2019-01-23T08:43:27.535Z,2.00
2019-01-23T08:44:27.503Z,1.60
2019-01-23T08:45:27.682Z,1.90
2019-01-23T08:46:27.438Z,1.70
2019-01-23T08:47:27.432Z,1.80
2019-01-23T08:48:27.394Z,2.20
2019-01-23T08:49:27.356Z,1.70
2019-01-23T08:50:27.343Z,1.70
2019-01-23T08:51:27.274Z,1.90
2019-01-23T08:52:27.246Z,2.10
2019-01-23T08:53:27.252Z,1.80
2019-01-23T08:54:27.204Z,1.90
2019-01-23T08:55:27.162Z,1.60
2019-01-23T08:56:27.265Z,1.90
2019-01-23T08:57:27.091Z,1.80
2019-01-23T08:58:27.052Z,1.60
2019-01-23T08:59:27.005Z,2.20
2019-01-23T09:00:26.985Z,2.20
2019-01-23T09:01:26.952Z,2.00
2019-01-23T09:02:26.927Z,1.70
2019-01-23T09:03:26.899Z,1.90
2019-01-23T09:04:26.850Z,1.80
2019-01-23T09:05:26.848Z,1.80
2019-01-23T09:06:26.766Z,1.60
2019-01-23T09:07:26.763Z,2.00
2019-01-23T09:08:26.727Z,1.90
2019-01-23T09:09:26.694Z,1.60
2019-01-23T09:10:26.641Z,2.00
2019-01-23T09:11:26.775Z,2.10
2019-01-23T09:12:26.609Z,2.00
2019-01-23T09:13:26.568Z,1.80
2019-01-23T09:14:26.538Z,1.70
2019-01-23T09:15:26.507Z,2.10
2019-01-23T09:16:26.441Z,1.80
2019-01-23T09:17:26.623Z,1.80
2019-01-23T09:18:26.392Z,1.70
2019-01-23T09:19:26.373Z,1.80
2019-01-23T09:20:26.320Z,2.10
2019-01-23T09:21:26.297Z,2.00
2019-01-23T09:22:26.253Z,1.50
2019-01-23T09:23:26.205Z,1.70
2019-01-23T09:24:26.196Z,1.80
2019-01-23T09:25:26.162Z,1.60
2019-01-23T09:26:26.118Z,1.80
2019-01-23T09:27:26.082Z,2.10
2019-01-23T09:28:26.049Z,2.20
2019-01-23T09:29:26.037Z,2.10
2019-01-23T09:30:25.997Z,1.70
2019-01-23T09:31:25.961Z,2.00
2019-01-23T09:32:25.938Z,1.80
2019-01-23T09:33:25.889Z,1.80
2019-01-23T09:34:25.858Z,1.90
2019-01-23T09:35:25.829Z,2.00
2019-01-23T09:36:25.799Z,1.80
2019-01-23T09:37:25.770Z,2.00
2019-01-23T09:38:25.793Z,1.70
2019-01-23T09:39:25.710Z,1.90
2019-01-23T09:40:25.658Z,2.10
2019-01-23T09:41:25.630Z,1.70
2019-01-23T09:42:25.608Z,1.70
2019-01-23T09:43:25.565Z,1.90
2019-01-23T09:44:25.925Z,2.00
2019-01-23T09:45:25.514Z,2.00
2019-01-23T09:46:25.478Z,2.10
2019-01-23T09:47:25.440Z,1.90
2019-01-23T09:48:25.420Z,1.90
2019-01-23T09:49:25.357Z,1.70
2019-01-23T09:50:25.469Z,1.60
2019-01-23T09:51:25.289Z,1.90
2019-01-23T09:52:25.257Z,1.70
2019-01-23T09:53:25.220Z,1.90
2019-01-23T09:54:25.218Z,1.80
2019-01-23T09:55:25.146Z,2.20
2019-01-23T09:56:25.172Z,1.80
2019-01-23T09:57:25.134Z,1.70
2019-01-23T09:58:25.055Z,1.70
2019-01-23T09:59:25.040Z,2.00
2019-01-23T10:00:24.994Z,2.00
2019-01-23T10:01:24.988Z,1.70
2019-01-23T10:02:24.913Z,1.70
2019-01-23T10:03:24.917Z,2.40
2019-01-23T10:04:24.854Z,1.80
2019-01-23T10:05:24.829Z,1.40
2019-01-23T10:06:24.782Z,1.70
2019-01-23T10:07:24.773Z,1.90
2019-01-23T10:08:24.748Z,2.00
2019-01-23T10:09:24.744Z,1.70
2019-01-23T10:10:24.664Z,1.90
2019-01-23T10:11:24.684Z,1.90
2019-01-23T10:12:24.612Z,2.40
2019-01-23T10:13:24.574Z,1.80
2019-01-23T10:14:24.545Z,1.80
2019-01-23T10:15:24.530Z,2.90
2019-01-23T10:16:24.470Z,2.20
2019-01-23T10:17:24.437Z,2.20
2019-01-23T10:18:24.401Z,2.40
2019-01-23T10:19:24.354Z,2.40
2019-01-23T10:20:24.333Z,2.40
2019-01-23T10:21:24.302Z,1.80
2019-01-23T10:22:24.334Z,1.90
2019-01-23T10:23:24.245Z,2.40
2019-01-23T10:24:24.210Z,1.90
2019-01-23T10:25:24.187Z,1.60
2019-01-23T10:26:24.136Z,1.80
2019-01-23T10:27:24.115Z,2.20
2019-01-23T10:28:24.080Z,2.20
2019-01-23T10:29:24.051Z,1.40
2019-01-23T10:30:24.015Z,1.70
2019-01-23T10:31:23.997Z,2.70
2019-01-23T10:32:23.949Z,1.90
2019-01-23T10:33:23.919Z,2.00
2019-01-23T10:34:23.898Z,2.00
2019-01-23T10:35:23.857Z,2.70
2019-01-23T10:36:23.840Z,2.00
2019-01-23T10:37:23.771Z,1.90
2019-01-23T10:38:23.880Z,2.30
2019-01-23T10:39:23.711Z,2.20
2019-01-23T10:40:23.696Z,1.70
2019-01-23T10:41:23.660Z,1.80
2019-01-23T10:42:23.623Z,1.90
2019-01-23T10:43:23.589Z,2.00
2019-01-23T10:44:23.815Z,1.80
2019-01-23T10:45:23.516Z,1.70
2019-01-23T10:46:23.517Z,2.00
2019-01-23T10:47:23.440Z,1.90
2019-01-23T10:48:23.427Z,1.50
2019-01-23T10:49:23.386Z,2.30
2019-01-23T10:50:23.495Z,1.70
2019-01-23T10:51:23.365Z,1.60
2019-01-23T10:52:23.305Z,1.80
2019-01-23T10:53:23.273Z,2.20
2019-01-23T10:54:23.237Z,2.10
2019-01-23T10:55:23.218Z,1.90
2019-01-23T10:56:23.146Z,1.90
2019-01-23T10:57:23.131Z,2.40
2019-01-23T10:58:23.098Z,20.50
2019-01-23T10:59:23.067Z,30.60
2019-01-23T11:00:23.044Z,23.50
2019-01-23T11:01:22.998Z,23.60
2019-01-23T11:02:22.973Z,22.50
2019-01-23T11:03:22.920Z,37.70
2019-01-23T11:04:22.947Z,39.90
2019-01-23T11:05:22.874Z,42.30
2019-01-23T11:06:22.854Z,51.50
2019-01-23T11:07:22.796Z,80.50
2019-01-23T11:08:22.786Z,61.50
2019-01-23T11:09:22.800Z,52.80
2019-01-23T11:10:22.710Z,44.30
2019-01-23T11:11:22.915Z,42.00
2019-01-23T11:12:22.642Z,38.80
2019-01-23T11:13:22.633Z,38.40
2019-01-23T11:14:22.592Z,37.40
2019-01-23T11:15:22.595Z,34.10
2019-01-23T11:16:22.539Z,25.80
2019-01-23T11:17:22.487Z,21.40
2019-01-23T11:18:22.485Z,16.80
2019-01-23T11:19:22.420Z,14.20
2019-01-23T11:20:22.384Z,13.20
2019-01-23T11:21:22.460Z,10.60
2019-01-23T11:22:22.330Z,8.70
2019-01-23T11:23:22.290Z,6.50
2019-01-23T11:24:22.274Z,5.40
2019-01-23T11:25:22.239Z,6.70
2019-01-23T11:26:22.221Z,5.10
2019-01-23T11:27:22.163Z,4.50
2019-01-23T11:28:22.161Z,3.70
2019-01-23T11:29:22.129Z,3.60
2019-01-23T11:30:22.101Z,3.30
2019-01-23T11:31:22.043Z,2.80
2019-01-23T11:32:22.102Z,2.90
2019-01-23T11:33:22.027Z,2.60
2019-01-23T11:34:21.947Z,2.50
2019-01-23T11:35:21.928Z,2.20
2019-01-23T11:36:21.890Z,2.30
2019-01-23T11:37:21.857Z,2.10
2019-01-23T11:38:21.832Z,2.50
2019-01-23T11:39:21.806Z,2.50
2019-01-23T11:40:21.770Z,2.30
2019-01-23T11:41:21.743Z,2.20
2019-01-23T11:42:21.706Z,13.50
2019-01-23T11:43:21.667Z,14.00
2019-01-23T11:44:21.626Z,9.20
2019-01-23T11:45:21.624Z,36.60
2019-01-23T11:46:21.588Z,23.40
2019-01-23T11:47:21.542Z,23.70
2019-01-23T11:48:21.518Z,29.30
2019-01-23T11:49:21.492Z,30.40
2019-01-23T11:50:23.069Z,24.70
2019-01-23T11:51:21.426Z,16.10
2019-01-23T11:52:21.378Z,25.50
2019-01-23T11:53:21.355Z,53.60
2019-01-23T11:54:21.332Z,40.80
2019-01-23T11:55:21.309Z,30.40
2019-01-23T11:56:21.285Z,27.60
2019-01-23T11:57:21.246Z,17.60
2019-01-23T11:58:21.205Z,9.70
2019-01-23T11:59:21.193Z,10.60
2019-01-23T12:00:21.155Z,8.80
2019-01-23T12:01:27.324Z,7.30
2019-01-23T12:02:21.093Z,6.20
2019-01-23T12:03:21.212Z,4.10
2019-01-23T12:04:21.008Z,2.30
2019-01-23T12:05:21.003Z,2.80
2019-01-23T12:06:21.001Z,2.60
2019-01-23T12:07:20.917Z,2.20
2019-01-23T12:08:20.899Z,2.30
2019-01-23T12:09:20.898Z,2.10
2019-01-23T12:10:20.842Z,1.60
2019-01-23T12:11:20.811Z,2.20
2019-01-23T12:12:20.771Z,1.60
2019-01-23T12:13:20.907Z,1.70
2019-01-23T12:14:20.725Z,1.50
2019-01-23T12:15:20.687Z,1.80
2019-01-23T12:16:20.674Z,1.50
2019-01-23T12:17:20.720Z,1.60
2019-01-23T12:18:20.603Z,1.70
2019-01-23T12:19:20.568Z,1.60
2019-01-23T12:20:20.555Z,1.40
2019-01-23T12:21:20.514Z,1.50
2019-01-23T12:22:20.481Z,1.40
2019-01-23T12:23:20.464Z,1.60
2019-01-23T12:24:20.439Z,1.60
2019-01-23T12:25:20.370Z,1.40
2019-01-23T12:26:20.373Z,1.20
2019-01-23T12:27:20.325Z,1.50
2019-01-23T12:28:20.329Z,1.60
2019-01-23T12:29:20.264Z,1.50
2019-01-23T12:30:20.228Z,1.00
2019-01-23T12:31:20.214Z,1.80
2019-01-23T12:32:20.166Z,1.50
2019-01-23T12:33:20.159Z,1.60
2019-01-23T12:34:20.122Z,1.30
2019-01-23T12:35:20.097Z,1.60
2019-01-23T12:36:20.059Z,1.40
2019-01-23T12:37:20.042Z,1.50
2019-01-23T12:38:20.004Z,1.30
2019-01-23T12:39:19.965Z,1.50
2019-01-23T12:40:19.933Z,1.80
2019-01-23T12:41:19.915Z,1.40
2019-01-23T12:42:19.857Z,1.40
2019-01-23T12:43:19.869Z,1.60
2019-01-23T12:44:19.833Z,1.40
2019-01-23T12:45:20.050Z,1.20
2019-01-23T12:46:19.737Z,1.40
2019-01-23T12:47:19.732Z,1.30
2019-01-23T12:48:19.694Z,1.20
2019-01-23T12:49:19.669Z,1.60
2019-01-23T12:50:19.640Z,1.60
2019-01-23T12:51:19.874Z,1.40
2019-01-23T12:52:19.581Z,1.20
2019-01-23T12:53:19.528Z,1.30
2019-01-23T12:54:19.529Z,1.30
2019-01-23T12:55:19.497Z,1.50
2019-01-23T12:56:19.464Z,1.30
2019-01-23T12:57:19.466Z,1.10
2019-01-23T12:58:19.392Z,1.50
2019-01-23T12:59:19.351Z,1.10
2019-01-23T13:00:19.343Z,1.40
2019-01-23T13:01:19.315Z,1.70
2019-01-23T13:02:19.273Z,1.20
2019-01-23T13:03:19.267Z,1.60
2019-01-23T13:04:19.233Z,1.60
2019-01-23T13:05:19.193Z,1.40
2019-01-23T13:06:19.149Z,1.90
2019-01-23T13:07:19.145Z,1.40
2019-01-23T13:08:19.100Z,1.30
2019-01-23T13:09:19.090Z,1.50
2019-01-23T13:10:19.039Z,1.60
2019-01-23T13:11:19.018Z,1.60
2019-01-23T13:12:18.979Z,1.40
2019-01-23T13:13:19.296Z,1.90
2019-01-23T13:14:18.958Z,1.30
2019-01-23T13:15:18.945Z,1.40
2019-01-23T13:16:18.864Z,1.70
2019-01-23T13:17:18.839Z,4.60
2019-01-23T13:18:18.965Z,4.40
2019-01-23T13:19:18.792Z,8.60
2019-01-23T13:20:18.807Z,28.20
2019-01-23T13:21:18.752Z,12.20
2019-01-23T13:22:18.720Z,20.20
2019-01-23T13:23:19.794Z,38.00
2019-01-23T13:24:18.644Z,14.40
2019-01-23T13:25:18.622Z,4.90
2019-01-23T13:26:18.577Z,6.70